Time;durP1;ratioP1;P1;durP2;ratioP2;P2;SDS_P1;SDS_P2;PMS_P1;PMS_P2;Temp;Humidity;BMP_temperature;BMP_pressure;BME280_temperature;BME280_humidity;BME280_pressure;Samples;Min_cycle;Max_cycle;Signal;HPM_P1;HPM_P2
2023/04/29 00:01:09;;;;;;;30.50;20.38;;;10.30;99.90;;;;;;5020700;28;20029;-85
2023/04/29 00:03:35;;;;;;;30.90;21.58;;;10.30;99.90;;;;;;5021062;28;20038;-84
2023/04/29 00:06:00;;;;;;;29.70;20.80;;;10.30;99.90;;;;;;5020569;28;20032;-84
2023/04/29 00:08:27;;;;;;;31.60;21.45;;;10.30;99.90;;;;;;5019173;28;20100;-85
2023/04/29 00:10:53;;;;;;;31.33;20.50;;;10.20;99.90;;;;;;5019880;28;20033;-85
2023/04/29 00:13:18;;;;;;;31.02;21.67;;;10.20;99.90;;;;;;5019323;28;20040;-85
2023/04/29 00:15:44;;;;;;;31.90;21.45;;;10.20;99.90;;;;;;5019196;28;20203;-85
2023/04/29 00:18:10;;;;;;;32.55;20.20;;;10.20;99.90;;;;;;5020044;28;20375;-85
2023/04/29 00:20:37;;;;;;;32.50;22.20;;;10.20;99.90;;;;;;5019725;28;20703;-84
2023/04/29 00:23:03;;;;;;;33.00;22.98;;;10.20;99.90;;;;;;5021044;28;20029;-83
2023/04/29 00:25:28;;;;;;;30.15;21.30;;;10.20;99.90;;;;;;5019082;28;20756;-84
2023/04/29 00:27:54;;;;;;;32.67;22.30;;;10.10;99.90;;;;;;5019740;28;20083;-85
2023/04/29 00:30:20;;;;;;;30.73;20.25;;;10.10;99.90;;;;;;5018604;28;20385;-85
2023/04/29 00:32:45;;;;;;;31.08;20.95;;;10.10;99.90;;;;;;5019375;28;20021;-84
2023/04/29 00:35:11;;;;;;;30.13;19.95;;;10.10;99.90;;;;;;5019805;28;20025;-85
2023/04/29 00:37:37;;;;;;;29.95;19.88;;;10.10;99.90;;;;;;5017830;28;20558;-83
2023/04/29 00:40:04;;;;;;;28.23;20.08;;;10.10;99.90;;;;;;5017496;28;20043;-84
2023/04/29 00:42:32;;;;;;;31.00;20.83;;;10.10;99.90;;;;;;5019262;28;20064;-84
2023/04/29 00:44:58;;;;;;;26.92;19.55;;;10.10;99.90;;;;;;5020297;28;20045;-84
2023/04/29 00:47:24;;;;;;;26.88;19.05;;;10.10;99.90;;;;;;5018636;28;20089;-84
2023/04/29 00:49:49;;;;;;;26.48;18.65;;;10.10;99.90;;;;;;5019577;28;20022;-84
2023/04/29 00:52:16;;;;;;;35.40;23.27;;;10.10;99.90;;;;;;5018869;28;20134;-82
2023/04/29 00:54:43;;;;;;;29.52;20.30;;;10.00;99.90;;;;;;5018783;28;20037;-84
2023/04/29 00:57:09;;;;;;;29.27;20.20;;;10.10;99.90;;;;;;5020325;28;20021;-84
2023/04/29 00:59:35;;;;;;;32.10;21.58;;;10.00;99.90;;;;;;5018598;28;20333;-85
2023/04/29 01:02:02;;;;;;;31.08;20.13;;;10.00;99.90;;;;;;5020826;28;20431;-83
2023/04/29 01:04:31;;;;;;;31.48;21.05;;;10.00;99.90;;;;;;5018448;28;20097;-85
2023/04/29 01:07:17;;;;;;;29.17;20.80;;;10.00;99.90;;;;;;5017549;28;20029;-82
2023/04/29 01:09:54;;;;;;;29.65;20.35;;;10.10;99.90;;;;;;5017386;28;20049;-82
2023/04/29 01:12:43;;;;;;;26.40;18.58;;;10.00;99.90;;;;;;5017689;28;20026;-83
2023/04/29 01:15:28;;;;;;;26.65;18.77;;;10.00;99.90;;;;;;5019036;28;20497;-83
2023/04/29 01:18:23;;;;;;;26.88;17.35;;;10.00;99.90;;;;;;5016613;28;20025;-83
2023/04/29 01:20:49;;;;;;;25.40;17.60;;;10.00;99.90;;;;;;5017658;28;20033;-85
2023/04/29 01:23:15;;;;;;;27.33;18.42;;;10.00;99.90;;;;;;5017317;28;20029;-84
2023/04/29 01:25:41;;;;;;;29.90;18.90;;;10.00;99.90;;;;;;5017726;28;20423;-83
2023/04/29 01:28:22;;;;;;;27.30;18.77;;;10.00;99.90;;;;;;5018174;28;20039;-83
2023/04/29 01:31:07;;;;;;;28.27;18.88;;;10.00;99.90;;;;;;5018665;28;20041;-83
2023/04/29 01:33:57;;;;;;;25.77;16.33;;;10.00;99.90;;;;;;5017646;28;20029;-85
2023/04/29 01:36:31;;;;;;;30.08;18.33;;;10.00;99.90;;;;;;5017721;28;20479;-84
2023/04/29 01:39:31;;;;;;;26.08;18.27;;;9.90;99.90;;;;;;5019007;28;20061;-82
2023/04/29 01:42:08;;;;;;;24.80;17.65;;;10.00;99.90;;;;;;5019264;28;20022;-84
2023/04/29 01:44:35;;;;;;;31.27;18.27;;;9.90;99.90;;;;;;5017977;28;20033;-84
2023/04/29 01:47:02;;;;;;;23.80;17.20;;;9.90;99.90;;;;;;5017945;28;20108;-84
2023/04/29 01:49:28;;;;;;;27.23;17.85;;;9.90;99.90;;;;;;5017777;28;20038;-83
2023/04/29 01:51:54;;;;;;;26.63;17.63;;;9.90;99.90;;;;;;5018485;28;20067;-83
2023/04/29 01:54:21;;;;;;;25.67;16.10;;;9.90;99.90;;;;;;5018313;28;20032;-84
2023/04/29 01:56:47;;;;;;;25.48;16.20;;;9.90;99.90;;;;;;5018455;28;21072;-83
2023/04/29 01:59:13;;;;;;;28.27;17.27;;;10.00;99.90;;;;;;5019674;28;20049;-84
2023/04/29 02:01:38;;;;;;;27.48;18.10;;;10.00;99.90;;;;;;5018106;28;20106;-82
2023/04/29 02:04:04;;;;;;;23.80;15.45;;;10.00;99.90;;;;;;5018718;28;20037;-83
2023/04/29 02:06:31;;;;;;;29.15;18.90;;;10.00;99.90;;;;;;5015390;28;20037;-83
2023/04/29 02:08:57;;;;;;;22.35;15.93;;;9.90;99.90;;;;;;5018685;28;20056;-83
2023/04/29 02:11:23;;;;;;;24.90;16.63;;;9.90;99.90;;;;;;5016477;28;20132;-84
2023/04/29 02:13:49;;;;;;;23.80;15.10;;;9.90;99.90;;;;;;5017049;28;20060;-83
2023/04/29 02:16:15;;;;;;;26.88;16.23;;;10.00;99.90;;;;;;5017313;28;20108;-81
2023/04/29 02:18:41;;;;;;;27.23;16.73;;;10.00;99.90;;;;;;5017558;28;20053;-82
2023/04/29 02:21:07;;;;;;;27.75;18.25;;;10.00;99.90;;;;;;5017067;28;20091;-82
2023/04/29 02:23:35;;;;;;;24.00;16.65;;;9.90;99.90;;;;;;5016818;28;20538;-82
2023/04/29 02:26:04;;;;;;;28.00;17.77;;;9.90;99.90;;;;;;5017926;28;20032;-85
2023/04/29 02:28:29;;;;;;;28.58;18.65;;;9.90;99.90;;;;;;5018448;28;20030;-82
2023/04/29 02:30:55;;;;;;;28.95;18.83;;;9.90;99.90;;;;;;5017306;28;20040;-84
2023/04/29 02:33:21;;;;;;;25.73;16.52;;;9.90;99.90;;;;;;5016909;28;20073;-85
2023/04/29 02:35:46;;;;;;;24.70;15.88;;;9.90;99.90;;;;;;5017417;28;20041;-85
2023/04/29 02:38:12;;;;;;;24.80;15.48;;;9.90;99.90;;;;;;5017623;28;20029;-85
2023/04/29 02:40:42;;;;;;;25.50;17.02;;;9.80;99.90;;;;;;5017354;28;20029;-85
2023/04/29 02:43:08;;;;;;;28.25;18.10;;;9.80;99.90;;;;;;5017133;28;20160;-83
2023/04/29 02:45:34;;;;;;;23.63;16.60;;;9.90;99.90;;;;;;5014116;28;20022;-84
2023/04/29 02:47:59;;;;;;;24.55;16.13;;;9.90;99.90;;;;;;5016960;28;20079;-84
2023/04/29 02:50:26;;;;;;;23.80;16.27;;;9.90;99.90;;;;;;5018993;28;20176;-84
2023/04/29 02:52:51;;;;;;;23.48;15.57;;;9.90;99.90;;;;;;5016043;28;20289;-84
2023/04/29 02:55:17;;;;;;;24.67;14.85;;;9.80;99.90;;;;;;5018295;28;20442;-82
2023/04/29 02:57:43;;;;;;;23.00;14.90;;;9.80;99.90;;;;;;5017984;28;20025;-85
2023/04/29 03:00:09;;;;;;;23.52;15.55;;;9.90;99.90;;;;;;5016722;28;20087;-85
2023/04/29 03:02:36;;;;;;;21.42;13.27;;;9.80;99.90;;;;;;5015675;28;20495;-85
2023/04/29 03:05:02;;;;;;;19.95;13.73;;;9.80;99.90;;;;;;5016496;28;20044;-85
2023/04/29 03:07:28;;;;;;;20.65;14.20;;;9.80;99.90;;;;;;5017360;28;20071;-85
2023/04/29 03:09:55;;;;;;;21.27;13.77;;;9.80;99.90;;;;;;5016862;28;20049;-84
2023/04/29 03:12:20;;;;;;;23.02;15.52;;;9.90;99.90;;;;;;5016573;28;20060;-84
2023/04/29 03:14:46;;;;;;;27.27;16.85;;;9.80;99.90;;;;;;5015997;28;20045;-85
2023/04/29 03:17:12;;;;;;;27.35;15.73;;;9.80;99.90;;;;;;5017988;28;20116;-85
2023/04/29 03:19:38;;;;;;;23.77;14.95;;;9.80;99.90;;;;;;5017107;28;20061;-81
2023/04/29 03:22:03;;;;;;;26.52;17.30;;;9.80;99.90;;;;;;5017789;28;20035;-85
2023/04/29 03:24:29;;;;;;;20.98;14.88;;;9.80;99.90;;;;;;5017409;28;20061;-85
2023/04/29 03:26:54;;;;;;;23.75;14.30;;;9.80;99.90;;;;;;5016499;28;20029;-85
2023/04/29 03:29:20;;;;;;;21.63;13.80;;;9.80;99.90;;;;;;5015348;28;20030;-83
2023/04/29 03:31:45;;;;;;;24.40;16.05;;;9.80;99.90;;;;;;5019123;28;20025;-83
2023/04/29 03:34:13;;;;;;;21.08;15.13;;;9.80;99.90;;;;;;5017412;28;20029;-84
2023/04/29 03:36:39;;;;;;;23.30;15.25;;;9.80;99.90;;;;;;5016327;28;20477;-85
2023/04/29 03:39:04;;;;;;;21.40;13.85;;;9.80;99.90;;;;;;5016544;28;20543;-84
2023/04/29 03:41:30;;;;;;;23.27;15.60;;;9.80;99.90;;;;;;5016529;28;20084;-84
2023/04/29 03:43:59;;;;;;;22.55;15.38;;;9.80;99.90;;;;;;5016665;28;20045;-81
2023/04/29 03:46:25;;;;;;;22.45;14.45;;;9.80;99.90;;;;;;5017156;28;20037;-84
2023/04/29 03:48:51;;;;;;;20.90;14.15;;;9.80;99.90;;;;;;5017912;28;22516;-85
2023/04/29 03:51:17;;;;;;;24.50;16.20;;;9.80;99.90;;;;;;5017926;28;20029;-83
2023/04/29 03:53:43;;;;;;;23.60;15.77;;;9.80;99.90;;;;;;5017878;28;20025;-85
2023/04/29 03:56:08;;;;;;;22.13;14.02;;;9.80;99.90;;;;;;5017142;28;20030;-84
2023/04/29 03:58:34;;;;;;;22.98;15.98;;;9.80;99.90;;;;;;5018351;28;20496;-84
2023/04/29 04:01:00;;;;;;;19.50;12.60;;;9.70;99.90;;;;;;5016951;28;20021;-83
2023/04/29 04:03:26;;;;;;;18.92;13.10;;;9.80;99.90;;;;;;5017007;28;20033;-84
2023/04/29 04:05:52;;;;;;;19.83;12.85;;;9.80;99.90;;;;;;5019189;28;20087;-86
2023/04/29 04:08:18;;;;;;;19.92;13.32;;;9.70;99.90;;;;;;5021625;28;20022;-84
2023/04/29 04:10:43;;;;;;;19.90;12.70;;;9.80;99.90;;;;;;5019608;28;20044;-83
2023/04/29 04:13:09;;;;;;;19.55;14.43;;;9.80;99.90;;;;;;5019091;28;20383;-84
2023/04/29 04:15:34;;;;;;;19.13;12.40;;;9.80;99.90;;;;;;5020774;28;20471;-84
2023/04/29 04:18:00;;;;;;;22.58;15.38;;;9.70;99.90;;;;;;5019367;28;20044;-84
2023/04/29 04:20:26;;;;;;;21.35;14.27;;;9.70;99.90;;;;;;5019433;28;20037;-84
2023/04/29 04:22:53;;;;;;;19.88;14.18;;;9.70;99.90;;;;;;5020188;28;20072;-84
2023/04/29 04:25:19;;;;;;;21.77;14.45;;;9.70;99.90;;;;;;5019717;28;20030;-84
2023/04/29 04:27:44;;;;;;;20.55;13.27;;;9.70;99.90;;;;;;5021500;28;20553;-84
2023/04/29 04:30:10;;;;;;;17.63;12.35;;;9.70;99.90;;;;;;5020171;28;20040;-85
2023/04/29 04:32:38;;;;;;;17.65;11.77;;;9.80;99.90;;;;;;5020768;28;20038;-85
2023/04/29 04:35:04;;;;;;;16.95;12.15;;;9.70;99.90;;;;;;5021831;28;20017;-83
2023/04/29 04:37:29;;;;;;;18.48;13.25;;;9.80;99.90;;;;;;5017931;28;20108;-85
2023/04/29 04:39:55;;;;;;;17.80;12.80;;;9.80;99.90;;;;;;5019084;28;20116;-85
2023/04/29 04:42:22;;;;;;;19.13;12.60;;;9.70;99.90;;;;;;5019268;28;20029;-85
2023/04/29 04:44:47;;;;;;;18.40;13.52;;;9.70;99.90;;;;;;5018662;28;20084;-85
2023/04/29 04:47:13;;;;;;;18.30;11.80;;;9.70;99.90;;;;;;5020281;28;20508;-84
2023/04/29 04:49:38;;;;;;;17.13;11.82;;;9.70;99.90;;;;;;5019716;28;20034;-85
2023/04/29 04:52:04;;;;;;;19.85;13.13;;;9.70;99.90;;;;;;5019435;28;20730;-85
2023/04/29 04:54:29;;;;;;;17.88;12.93;;;9.70;99.90;;;;;;5015826;28;20505;-83
2023/04/29 04:56:55;;;;;;;19.55;12.65;;;9.70;99.90;;;;;;5019663;28;20101;-84
2023/04/29 04:59:20;;;;;;;17.33;12.52;;;9.70;99.90;;;;;;5019307;28;20479;-86
2023/04/29 05:01:46;;;;;;;17.52;12.57;;;9.70;99.90;;;;;;5019963;28;20041;-85
2023/04/29 05:04:12;;;;;;;15.20;10.93;;;9.70;99.90;;;;;;5020154;28;20092;-83
2023/04/29 05:06:37;;;;;;;16.17;11.77;;;9.80;99.90;;;;;;5019782;28;20021;-85
2023/04/29 05:09:03;;;;;;;16.67;11.43;;;9.70;99.90;;;;;;5018932;28;20046;-87
2023/04/29 05:11:28;;;;;;;16.83;12.05;;;9.80;99.90;;;;;;5017334;28;20033;-84
2023/04/29 05:13:54;;;;;;;18.88;11.32;;;9.80;99.90;;;;;;5019777;28;20030;-85
2023/04/29 05:16:20;;;;;;;16.40;10.80;;;9.80;99.90;;;;;;5016252;28;20025;-84
2023/04/29 05:18:45;;;;;;;16.67;11.85;;;9.80;99.90;;;;;;5018758;28;20092;-85
2023/04/29 05:21:12;;;;;;;17.35;12.35;;;9.80;99.90;;;;;;5018287;28;20555;-85
2023/04/29 05:23:37;;;;;;;16.52;11.10;;;9.80;99.90;;;;;;5018594;28;20476;-84
2023/04/29 05:26:03;;;;;;;15.43;11.13;;;9.90;99.90;;;;;;5019732;28;20040;-84
2023/04/29 05:28:29;;;;;;;14.68;10.82;;;9.90;99.90;;;;;;5018172;28;20021;-85
2023/04/29 05:30:54;;;;;;;16.40;11.70;;;9.90;99.90;;;;;;5019811;28;20037;-84
2023/04/29 05:33:21;;;;;;;15.75;11.02;;;10.00;99.90;;;;;;5018348;28;20152;-84
2023/04/29 05:35:46;;;;;;;17.17;11.60;;;10.00;99.90;;;;;;5015978;28;20703;-85
2023/04/29 05:38:12;;;;;;;14.50;10.68;;;10.10;99.90;;;;;;5018886;28;20017;-84
2023/04/29 05:40:38;;;;;;;15.70;11.55;;;10.00;99.90;;;;;;5018678;28;20033;-85
2023/04/29 05:43:03;;;;;;;17.60;12.98;;;10.10;99.90;;;;;;5019677;28;20029;-85
2023/04/29 05:45:29;;;;;;;18.92;13.02;;;10.10;99.90;;;;;;5018867;28;20021;-84
2023/04/29 05:47:54;;;;;;;18.27;12.00;;;10.00;99.90;;;;;;5019097;28;20032;-86
2023/04/29 05:50:20;;;;;;;16.55;12.05;;;10.10;99.90;;;;;;5020194;28;20040;-85
2023/04/29 05:52:45;;;;;;;18.02;12.13;;;10.10;99.90;;;;;;5018737;28;20047;-85
2023/04/29 05:55:11;;;;;;;14.60;11.20;;;10.10;99.90;;;;;;5020013;28;20026;-85
2023/04/29 05:57:36;;;;;;;15.18;11.40;;;10.10;99.90;;;;;;5018309;28;20025;-85
2023/04/29 06:00:02;;;;;;;17.17;11.68;;;10.20;99.90;;;;;;5017798;28;20100;-85
2023/04/29 06:02:28;;;;;;;16.10;11.73;;;10.20;99.90;;;;;;5018479;28;20053;-84
2023/04/29 06:04:54;;;;;;;16.90;11.55;;;10.20;99.90;;;;;;5017916;28;20041;-84
2023/04/29 06:07:19;;;;;;;16.90;12.70;;;10.30;99.90;;;;;;5019437;28;20026;-85
2023/04/29 06:09:45;;;;;;;18.35;13.20;;;10.40;99.90;;;;;;5017470;28;20687;-85
2023/04/29 06:12:10;;;;;;;19.85;14.77;;;10.40;99.90;;;;;;5018901;28;20398;-84
2023/04/29 06:14:36;;;;;;;20.60;15.43;;;10.40;99.90;;;;;;5017044;28;20034;-85
2023/04/29 06:17:02;;;;;;;19.95;14.25;;;10.40;99.90;;;;;;5018841;28;20487;-84
2023/04/29 06:19:28;;;;;;;18.65;13.65;;;10.40;99.90;;;;;;5017780;28;20087;-84
2023/04/29 06:21:54;;;;;;;22.02;13.55;;;10.50;99.90;;;;;;5018480;28;20116;-86
2023/04/29 06:24:19;;;;;;;21.17;13.75;;;10.50;99.90;;;;;;5016672;28;20033;-85
2023/04/29 06:26:45;;;;;;;22.05;14.88;;;10.60;99.90;;;;;;5018339;28;20103;-86
2023/04/29 06:29:11;;;;;;;19.85;14.60;;;10.60;99.90;;;;;;5018305;28;20114;-84
2023/04/29 06:31:37;;;;;;;19.58;14.07;;;10.60;99.90;;;;;;5018570;28;20025;-85
2023/04/29 06:34:02;;;;;;;16.65;12.70;;;10.60;99.90;;;;;;5018309;28;20407;-86
2023/04/29 06:36:28;;;;;;;16.90;12.25;;;10.60;99.90;;;;;;5019750;28;20033;-87
2023/04/29 06:38:54;;;;;;;18.10;12.43;;;10.70;99.90;;;;;;5018116;28;20108;-87
2023/04/29 06:41:20;;;;;;;15.55;11.25;;;10.70;99.90;;;;;;5019929;28;20025;-85
2023/04/29 06:43:45;;;;;;;16.48;12.75;;;10.70;99.90;;;;;;5018158;28;20045;-84
2023/04/29 06:46:11;;;;;;;14.95;11.57;;;10.80;99.90;;;;;;5020050;28;20426;-85
2023/04/29 06:48:37;;;;;;;16.08;11.82;;;10.90;99.90;;;;;;5018861;28;20033;-86
2023/04/29 06:51:03;;;;;;;22.60;14.27;;;10.90;99.90;;;;;;5021106;28;20501;-88
2023/04/29 06:53:28;;;;;;;20.52;12.65;;;10.90;99.90;;;;;;5018017;28;20037;-86
2023/04/29 06:55:54;;;;;;;18.15;12.80;;;10.90;99.90;;;;;;5018674;28;20798;-86
2023/04/29 06:58:20;;;;;;;16.90;12.63;;;10.90;99.90;;;;;;5018123;28;20097;-86
2023/04/29 07:00:48;;;;;;;14.00;11.20;;;11.00;99.90;;;;;;5018875;28;20022;-86
2023/04/29 07:03:14;;;;;;;16.50;11.23;;;11.00;99.90;;;;;;5016742;28;20521;-85
2023/04/29 07:05:44;;;;;;;16.00;11.77;;;11.10;99.90;;;;;;5015398;28;20044;-84
2023/04/29 07:08:10;;;;;;;14.40;11.63;;;11.10;99.90;;;;;;5015388;28;20025;-85
2023/04/29 07:10:36;;;;;;;16.73;11.43;;;11.20;99.90;;;;;;5015116;28;20037;-87
2023/04/29 07:13:02;;;;;;;16.95;11.15;;;11.20;99.90;;;;;;5014501;28;20491;-86
2023/04/29 07:15:29;;;;;;;18.10;11.88;;;11.30;99.90;;;;;;5020125;28;20049;-87
2023/04/29 07:17:55;;;;;;;20.10;12.68;;;11.30;99.90;;;;;;5017591;28;20032;-87
2023/04/29 07:20:21;;;;;;;16.77;11.70;;;11.30;99.90;;;;;;5014519;28;20037;-87
2023/04/29 07:22:46;;;;;;;15.82;10.55;;;11.40;99.90;;;;;;5033150;28;20392;-90
2023/04/29 07:25:12;;;;;;;18.45;12.57;;;11.40;99.90;;;;;;5014251;28;20048;-85
2023/04/29 07:27:38;;;;;;;14.98;10.13;;;11.50;99.90;;;;;;5016438;28;20068;-87
2023/04/29 07:30:04;;;;;;;13.70;10.90;;;11.50;99.90;;;;;;5014683;28;20116;-86
2023/04/29 07:32:30;;;;;;;14.38;10.88;;;11.60;99.90;;;;;;5014076;28;20526;-85
2023/04/29 07:34:56;;;;;;;14.10;10.45;;;11.60;99.90;;;;;;5015273;28;20033;-85
2023/04/29 07:37:22;;;;;;;16.50;9.98;;;11.70;99.90;;;;;;5013702;28;20030;-86
2023/04/29 07:39:47;;;;;;;14.48;10.65;;;11.80;99.90;;;;;;5016908;28;20037;-86
2023/04/29 07:42:13;;;;;;;17.27;11.35;;;11.90;99.90;;;;;;5019057;28;20032;-86
2023/04/29 07:44:39;;;;;;;15.95;11.10;;;12.00;99.90;;;;;;5018066;28;20048;-87
2023/04/29 07:47:05;;;;;;;13.77;9.98;;;12.00;99.90;;;;;;5020725;28;20418;-84
2023/04/29 07:49:30;;;;;;;16.58;10.25;;;12.10;99.90;;;;;;5019217;28;20022;-86
2023/04/29 07:51:56;;;;;;;14.70;10.35;;;12.10;99.90;;;;;;5020858;28;20042;-81
2023/04/29 07:54:22;;;;;;;17.55;11.60;;;12.30;99.90;;;;;;5023544;28;20033;-87
2023/04/29 07:56:48;;;;;;;16.63;11.27;;;12.30;99.90;;;;;;5015862;28;20136;-85
2023/04/29 07:59:13;;;;;;;16.25;11.40;;;12.40;99.90;;;;;;5015815;28;20770;-88
2023/04/29 08:01:42;;;;;;;16.65;11.50;;;12.50;99.90;;;;;;5016829;28;20030;-87
2023/04/29 08:04:08;;;;;;;14.77;10.02;;;12.50;99.90;;;;;;5017556;28;20055;-86
2023/04/29 08:06:34;;;;;;;14.63;10.63;;;12.60;99.90;;;;;;5015160;28;20478;-83
2023/04/29 08:09:00;;;;;;;14.32;9.60;;;12.60;99.90;;;;;;5016916;28;20046;-87
2023/04/29 08:11:26;;;;;;;11.35;8.65;;;12.80;99.90;;;;;;5015458;28;20033;-85
2023/04/29 08:13:52;;;;;;;12.77;8.45;;;12.90;99.90;;;;;;5016584;28;20033;-86
2023/04/29 08:16:18;;;;;;;11.57;8.57;;;13.00;99.90;;;;;;5017568;28;20037;-87
2023/04/29 08:18:43;;;;;;;11.52;7.82;;;13.00;99.90;;;;;;5018497;28;20021;-84
2023/04/29 08:21:11;;;;;;;13.20;8.23;;;13.10;99.90;;;;;;5015780;28;20036;-86
2023/04/29 08:23:37;;;;;;;10.77;8.27;;;13.10;99.90;;;;;;5017744;28;20018;-87
2023/04/29 08:26:03;;;;;;;11.50;7.55;;;13.20;99.90;;;;;;5017533;28;20088;-86
2023/04/29 08:28:29;;;;;;;11.75;7.75;;;13.30;99.90;;;;;;5016894;28;20131;-84
2023/04/29 08:30:55;;;;;;;11.15;7.75;;;13.40;99.90;;;;;;5018751;28;20436;-85
2023/04/29 08:33:21;;;;;;;11.40;8.02;;;13.50;99.90;;;;;;5019207;28;20029;-86
2023/04/29 08:35:46;;;;;;;9.98;7.82;;;13.60;99.90;;;;;;5016863;28;20025;-86
2023/04/29 08:38:12;;;;;;;10.13;7.45;;;13.70;99.90;;;;;;5015246;28;20399;-85
2023/04/29 08:40:44;;;;;;;11.30;8.05;;;13.80;99.90;;;;;;5018465;28;20077;-85
2023/04/29 08:43:11;;;;;;;12.37;7.50;;;13.90;99.90;;;;;;5018265;28;20526;-87
2023/04/29 08:45:38;;;;;;;10.60;7.25;;;14.10;99.90;;;;;;5034495;28;20173;-83
2023/04/29 08:48:05;;;;;;;11.32;7.07;;;14.20;99.90;;;;;;5018673;28;20022;-87
2023/04/29 08:50:35;;;;;;;8.38;5.75;;;14.40;99.90;;;;;;5016544;28;20068;-87
2023/04/29 08:53:01;;;;;;;11.43;8.98;;;14.60;99.90;;;;;;5017560;28;20048;-86
2023/04/29 08:55:27;;;;;;;12.23;8.05;;;14.80;99.90;;;;;;5018127;28;20061;-87
2023/04/29 08:57:55;;;;;;;10.75;7.07;;;14.60;99.90;;;;;;5017245;28;20145;-86
2023/04/29 09:00:23;;;;;;;9.90;6.65;;;14.60;99.90;;;;;;5015822;28;20138;-86
2023/04/29 09:02:52;;;;;;;8.52;5.75;;;14.60;99.90;;;;;;5019290;28;20079;-87
2023/04/29 09:05:18;;;;;;;8.85;6.30;;;14.60;99.90;;;;;;5020677;28;20037;-88
2023/04/29 09:07:45;;;;;;;8.00;5.72;;;14.60;99.90;;;;;;5018225;28;20025;-87
2023/04/29 09:10:11;;;;;;;9.13;5.50;;;14.60;99.90;;;;;;5019881;28;20239;-87
2023/04/29 09:12:37;;;;;;;8.60;6.18;;;14.60;99.90;;;;;;5033171;28;20414;-85
2023/04/29 09:15:03;;;;;;;10.00;6.53;;;14.50;99.90;;;;;;5018829;28;20025;-88
2023/04/29 09:17:45;;;;;;;9.55;6.10;;;14.50;99.90;;;;;;5020507;28;20054;-83
2023/04/29 09:20:22;;;;;;;8.43;5.38;;;14.50;99.90;;;;;;5017303;28;20109;-86
2023/04/29 09:22:52;;;;;;;8.52;5.15;;;14.50;99.90;;;;;;5016100;28;20315;-87
2023/04/29 09:25:19;;;;;;;7.28;4.68;;;14.70;99.90;;;;;;5016366;28;20046;-88
2023/04/29 09:27:45;;;;;;;6.70;4.40;;;15.00;99.90;;;;;;5018515;28;20028;-88
2023/04/29 09:30:12;;;;;;;8.70;4.72;;;15.20;99.90;;;;;;5019602;28;20025;-85
2023/04/29 09:32:38;;;;;;;8.77;4.15;;;15.50;99.90;;;;;;5022868;28;20022;-88
2023/04/29 09:35:39;;;;;;;6.57;4.53;;;15.90;99.90;;;;;;5019473;28;20029;-88
2023/04/29 09:38:10;;;;;;;8.02;4.68;;;16.60;99.90;;;;;;4977913;28;20037;-85
2023/04/29 09:40:36;;;;;;;6.70;4.25;;;16.60;99.90;;;;;;5015169;28;20036;-86
2023/04/29 09:43:02;;;;;;;8.82;5.30;;;16.70;99.90;;;;;;5015378;28;20026;-85
2023/04/29 09:45:38;;;;;;;7.20;4.95;;;16.50;99.90;;;;;;5015770;28;20049;-85
2023/04/29 09:48:05;;;;;;;8.40;4.35;;;16.20;99.90;;;;;;5016493;28;20055;-86
2023/04/29 09:50:31;;;;;;;7.10;4.05;;;16.00;99.90;;;;;;5017408;28;20038;-86
2023/04/29 09:52:58;;;;;;;5.72;3.55;;;15.70;99.90;;;;;;5017729;28;20029;-85
2023/04/29 09:55:23;;;;;;;5.30;3.60;;;15.80;99.90;;;;;;5014498;28;20025;-85
2023/04/29 09:57:49;;;;;;;5.55;3.55;;;16.50;99.90;;;;;;5014651;28;20056;-87
2023/04/29 10:00:15;;;;;;;4.07;2.63;;;16.90;99.90;;;;;;5018225;28;20088;-80
2023/04/29 10:02:47;;;;;;;5.38;2.97;;;17.00;99.90;;;;;;5016198;28;20105;-86
2023/04/29 10:05:13;;;;;;;5.28;3.22;;;17.00;99.90;;;;;;5016143;28;20398;-88
2023/04/29 10:07:39;;;;;;;5.32;3.55;;;16.80;99.90;;;;;;5016123;28;20037;-88
2023/04/29 10:10:07;;;;;;;6.13;3.30;;;16.60;99.90;;;;;;5016924;28;20057;-85
2023/04/29 10:12:34;;;;;;;6.78;3.30;;;16.50;99.90;;;;;;5016495;28;20487;-86
2023/04/29 10:15:17;;;;;;;6.18;3.10;;;16.30;99.90;;;;;;5020434;28;20406;-84
2023/04/29 10:17:47;;;;;;;3.97;2.95;;;16.30;99.90;;;;;;5014383;28;20031;-85
2023/04/29 10:20:15;;;;;;;4.43;2.95;;;16.10;99.90;;;;;;5015695;28;20589;-85
2023/04/29 10:22:48;;;;;;;5.82;3.28;;;16.00;99.90;;;;;;5016757;28;20082;-87
2023/04/29 10:25:18;;;;;;;4.68;2.85;;;15.80;99.90;;;;;;5017520;28;20040;-85
2023/04/29 10:27:45;;;;;;;5.38;2.95;;;15.60;99.90;;;;;;5016197;28;20260;-88
2023/04/29 10:30:15;;;;;;;4.13;3.08;;;15.50;99.90;;;;;;5015895;28;20037;-86
2023/04/29 10:32:42;;;;;;;5.13;2.92;;;15.40;99.90;;;;;;5030968;28;20060;-87
2023/04/29 10:35:13;;;;;;;4.22;2.65;;;15.50;99.90;;;;;;5013706;28;20580;-86
2023/04/29 10:37:39;;;;;;;4.90;3.00;;;15.60;99.90;;;;;;5016400;28;20064;-85
2023/04/29 10:40:12;;;;;;;4.50;3.15;;;15.60;99.90;;;;;;5016515;28;20022;-87
2023/04/29 10:42:46;;;;;;;4.45;2.35;;;15.60;99.90;;;;;;5013890;28;20111;-86
2023/04/29 10:45:31;;;;;;;6.15;3.08;;;15.50;99.90;;;;;;5015111;28;20034;-85
2023/04/29 10:48:07;;;;;;;5.20;2.60;;;15.40;99.90;;;;;;5016752;28;20053;-85
2023/04/29 10:50:45;;;;;;;4.25;2.38;;;15.30;99.90;;;;;;5015384;28;20108;-86
2023/04/29 10:53:11;;;;;;;4.50;2.40;;;15.40;99.90;;;;;;5019841;28;20033;-84
2023/04/29 10:55:37;;;;;;;3.35;2.15;;;15.60;99.90;;;;;;5017832;28;20037;-85
2023/04/29 10:58:04;;;;;;;3.67;2.33;;;15.60;99.90;;;;;;5034096;28;20036;-87
2023/04/29 11:00:32;;;;;;;3.75;2.20;;;15.70;99.90;;;;;;5017513;28;20037;-84
2023/04/29 11:02:59;;;;;;;3.83;2.13;;;15.80;99.90;;;;;;5022487;28;20111;-87
2023/04/29 11:05:35;;;;;;;4.30;2.42;;;15.90;99.90;;;;;;5023092;28;20050;-86
2023/04/29 11:08:22;;;;;;;4.00;2.30;;;16.00;99.90;;;;;;5037695;28;20728;-86
2023/04/29 11:10:59;;;;;;;5.65;2.40;;;16.20;99.90;;;;;;5017801;28;20049;-88
2023/04/29 11:13:29;;;;;;;4.50;2.60;;;16.10;99.90;;;;;;5018589;28;20034;-86
2023/04/29 11:16:05;;;;;;;3.05;2.00;;;16.20;99.90;;;;;;5024553;28;20479;-88
2023/04/29 11:18:32;;;;;;;4.50;2.10;;;16.30;99.90;;;;;;5023783;28;20022;-86
2023/04/29 11:21:03;;;;;;;4.13;2.20;;;16.40;99.90;;;;;;5021471;28;20861;-85
2023/04/29 11:23:29;;;;;;;4.40;2.40;;;16.70;99.90;;;;;;5019244;28;20041;-86
2023/04/29 11:25:55;;;;;;;3.47;1.95;;;17.10;99.90;;;;;;5026761;28;20038;-87
2023/04/29 11:28:22;;;;;;;5.20;2.17;;;18.10;99.90;;;;;;5026972;28;20025;-86
2023/04/29 11:30:50;;;;;;;4.15;2.13;;;18.50;99.90;;;;;;5026080;28;22319;-88
2023/04/29 11:33:15;;;;;;;2.83;1.90;;;18.70;99.90;;;;;;5028537;28;20054;-85
2023/04/29 11:35:42;;;;;;;6.55;2.50;;;18.90;99.90;;;;;;5028127;28;20022;-88
2023/04/29 11:38:08;;;;;;;3.42;1.77;;;19.10;99.90;;;;;;5025842;28;20144;-87
2023/04/29 11:40:34;;;;;;;3.15;2.13;;;19.30;99.90;;;;;;5026408;28;20671;-88
2023/04/29 11:42:59;;;;;;;4.20;2.03;;;19.50;99.90;;;;;;5028896;28;20021;-88
2023/04/29 11:45:26;;;;;;;3.13;1.92;;;19.60;99.90;;;;;;5029391;28;20057;-87
2023/04/29 11:47:52;;;;;;;4.38;2.17;;;20.00;99.90;;;;;;5027632;28;20020;-88
2023/04/29 11:50:19;;;;;;;3.08;1.90;;;20.40;99.90;;;;;;5033160;28;20107;-90
2023/04/29 11:52:48;;;;;;;3.53;1.88;;;20.20;99.90;;;;;;5031431;28;20138;-88
2023/04/29 11:55:14;;;;;;;3.53;1.73;;;19.90;99.90;;;;;;5026235;28;20026;-87
2023/04/29 11:57:40;;;;;;;2.33;1.52;;;19.40;99.90;;;;;;5023345;28;20045;-90
2023/04/29 12:00:13;;;;;;;3.00;1.80;;;19.10;99.90;;;;;;5021379;28;20053;-88
2023/04/29 12:02:42;;;;;;;2.17;1.50;;;19.00;99.90;;;;;;5026517;28;20028;-87
2023/04/29 12:05:08;;;;;;;2.90;1.75;;;18.80;99.90;;;;;;5024514;28;20037;-88
2023/04/29 12:07:37;;;;;;;2.55;1.50;;;18.80;99.90;;;;;;5025729;28;20092;-87
2023/04/29 12:10:06;;;;;;;2.35;1.33;;;18.70;99.90;;;;;;5022285;28;20053;-85
2023/04/29 12:12:35;;;;;;;2.25;1.48;;;18.70;99.90;;;;;;5019991;28;20029;-88
2023/04/29 12:15:02;;;;;;;3.28;1.40;;;18.60;99.90;;;;;;5020818;28;20022;-85
2023/04/29 12:17:28;;;;;;;3.47;1.70;;;18.60;99.90;;;;;;5017723;28;20052;-85
2023/04/29 12:19:54;;;;;;;3.50;1.90;;;18.40;99.90;;;;;;5035063;28;20044;-86
2023/04/29 12:22:21;;;;;;;4.20;1.90;;;18.20;99.90;;;;;;5021331;28;20044;-84
2023/04/29 12:24:49;;;;;;;6.10;2.60;;;18.00;99.90;;;;;;5016646;28;20383;-84
2023/04/29 12:27:15;;;;;;;4.65;2.80;;;17.90;99.90;;;;;;5017787;28;20014;-85
2023/04/29 12:29:41;;;;;;;6.25;2.90;;;17.70;99.90;;;;;;5023700;28;20030;-86
2023/04/29 12:32:11;;;;;;;3.97;2.38;;;17.70;99.90;;;;;;5023641;28;20029;-85
2023/04/29 12:34:38;;;;;;;4.32;2.00;;;18.30;99.90;;;;;;5024837;28;20036;-85
2023/04/29 12:37:04;;;;;;;2.60;1.55;;;19.00;99.90;;;;;;5026671;28;20022;-88